Meishan, China
Current Conditions -  °F | °C
As of 6:00 AM on Tuesday 27 Jan 2015 (Local Time) from ZUUU Reporting Station
Haze Haze  
Wind Chill: 50°   Ceiling: Unl
Heat Index: 50°   Visibility: 1.8mi
Dew Point: 45°   Wind: 0mph
Humidity: 82%   Direction: NA
Pressure: 30.03"   Gusts: NA
Location:  30.05°N, 103.85°E
Report Text: ZUUU 262200Z 00000MPS 3000 BR FEW040 10/07 Q1017 BECMGTL2330 2500 BR
Loading
Personal Weather Stations






























Interactive Weather Map New forecast layout! Learn more

10-Day Weather Forecast

Advertisements
Track Severe Weather on mobile